NEODyS-2

Near Earth Objects - Dynamic Site
NEODyS ∴ Observatories ∴ Site 691 ∴ Obs & residuals
Contact »
691  ▹ 
OBSERVATIONS AND RESIDUALS

691-Steward Observatory, Kitt Peak-Spacewatch

Detections | Residuals | Detections & Residuals

[1-200] [201-400] [401-600] [601-800] [801-1000] [1001-1200] [1201-1400] [1401-1600] [1601-1800] [1801-2000] [2001-2200] [2201-2400] [2401-2600] [2601-2800] [2801-3000] [3001-3200] [3201-3400] [3401-3600] [3601-3800] [3801-4000] [4001-4200] [4201-4400] [4401-4600] [4601-4800] [4801-5000] [5001-5200] [5201-5400] [5401-5600] [5601-5800] [5801-6000] [6001-6200] [6201-6400] [6401-6600] [6601-6800] [6801-7000] [7001-7200] [7201-7400] [7401-7600] [7601-7800] [7801-8000] [8001-8200] [8201-8400] [8401-8600] [8601-8800] [8801-9000] [9001-9200] [9201-9400] [9401-9600] [9601-9800] [9801-10000] [10001-10200] [10201-10400] [10401-10600] [10601-10800] [10801-11000] [11001-11200] [11201-11400] [11401-11600] [11601-11800] [11801-12000] [12001-12200] [12201-12400] [12401-12600] [12601-12800] [12801-13000] [13001-13200] [13201-13400] [13401-13600] [13601-13800] [13801-14000] [14001-14200] [14201-14400] [14401-14600] [14601-14800] [14801-15000] [15001-15200] [15201-15400] [15401-15600] [15601-15800] [15801-16000] [16001-16200] [16201-16400] [16401-16600] [16601-16800] [16801-17000] [17001-17200] [17201-17400] [17401-17600] [17601-17800] [17801-18000] [18001-18200] [18201-18400] [18401-18600] [18601-18800] [18801-19000] [19001-19200] [19201-19400] [19401-19600] [19601-19800] [19801-20000] [20001-20200] [20201-20400] [20401-20600] [20601-20800] [20801-21000] [21001-21200] [21201-21400] [21401-21600] [21601-21800] [21801-22000] [22001-22200] [22201-22400] [22401-22600] [22601-22800] [22801-23000] [23001-23200] [23201-23400] [23401-23600] [23601-23800] [23801-24000] [24001-24200] [24201-24400] [24401-24600] [24601-24800] [24801-25000] [25001-25200] [25201-25400] [25401-25600] [25601-25800] [25801-26000] [26001-26200] [26201-26400] [26401-26600] [26601-26800] [26801-27000] [27001-27200] [27201-27400] [27401-27600] [27601-27800] [27801-28000] [28001-28200] [28201-28400] [28401-28600] [28601-28800] [28801-29000] [29001-29200] [29201-29400] [29401-29600] [29601-29800] [29801-30000] [30001-30200] [30201-30400] [30401-30600] [30601-30800] [30801-31000] [31001-31200] [31201-31400] [31401-31600] [31601-31800] [31801-32000] [32001-32200] [32201-32400] [32401-32600] [32601-32800] [32801-33000] [33001-33200] [33201-33400] [33401-33600] [33601-33800] [33801-34000] [34001-34200] [34201-34400] [34401-34600] [34601-34800] [34801-35000] [35001-35200] [35201-35400] [35401-35600] [35601-35800] [35801-36000] [36001-36200] [36201-36400] [36401-36600] [36601-36800] [36801-37000] [37001-37200] [37201-37400] [37401-37600] [37601-37800] [37801-38000] [38001-38200] [38201-38400] [38401-38600] [38601-38800] [38801-39000] [39001-39200] [39201-39400] [39401-39600] [39601-39800] [39801-40000] [40001-40200] [40201-40400] [40401-40600] [40601-40800] [40801-41000] [41001-41200] [41201-41400] [41401-41600] [41601-41800] [41801-42000] [42001-42200] [42201-42400] [42401-42600] [42601-42800] [42801-43000] [43001-43200] [43201-43400] [43401-43600] [43601-43800] [43801-44000] [44001-44200] [44201-44400] [44401-44600] [44601-44800] [44801-45000] [45001-45200] [45201-45400] [45401-45600] [45601-45800] [45801-46000] [46001-46200] [46201-46400] [46401-46600] [46601-46800] [46801-47000] [47001-47200] [47201-47400] [47401-47600] [47601-47800] [47801-48000] [48001-48200] [48201-48400] [48401-48600] [48601-48800] [48801-49000] [49001-49200] [49201-49400] [49401-49600] [49601-49800] [49801-50000] [50001-50200] [50201-50388]

Designation T Tech N Date Right Ascension Declination Apparent Magnitude Star Catalog Site code χ Used A Used M
yr-mo-day precision hr:min:sec precision rms F bias residual deg min sec precision rms F bias residual mag/col rms residual
1988XB O C 2004-12-19.29743 1.000E-05 06:25:06.220 1.500E-01 0.500 F -0.058 -0.033 +28° 15' 37.60" 1.000E-01 0.500 F 0.343 -0.032 15.3 V 0.70 -0.08 c 691 0.09 Yes Yes
2005BY1 O C 2004-12-19.41086 1.000E-05 08:00:00.410 1.500E-01 0.500 F 0.229 -0.038 +27° 14' 38.30" 1.000E-01 0.500 F 0.093 -0.263 20.8 V 0.70 -0.45 c 691 0.55 Yes Yes
2005BY1 O C 2004-12-19.43716 1.000E-05 07:59:58.910 1.500E-01 0.500 F 0.229 0.078 +27° 14' 36.20" 1.000E-01 0.500 F 0.093 -0.166 21.3 V 0.70 0.05 c 691 0.38 Yes Yes
2005BY1 O C 2004-12-19.46633 1.000E-05 07:59:57.240 1.500E-01 0.500 F 0.229 0.111 +27° 14' 33.60" 1.000E-01 0.500 F 0.093 -0.253 20.8 V 0.70 -0.45 c 691 0.57 Yes Yes
2004YD5 O C t 2004-12-20.21977 1.000E-05 05:33:11.920 1.500E-01 0.612 F -0.107 0.724 +24° 47' 00.40" 1.000E-01 0.612 F 0.100 -2.988 17.9 V 0.70 -0.32 c 691 3.14 No Yes
2004YD5 O C t 2004-12-20.24516 1.000E-05 05:32:53.110 1.500E-01 0.612 F -0.074 0.113 +24° 57' 58.60" 1.000E-01 0.612 F 0.192 0.011 18.1 V 0.70 -0.27 c 691 0.30 Yes Yes
2004YD5 O C t 2004-12-20.27050 1.000E-05 05:32:35.910 1.500E-01 0.612 F -0.074 -0.169 +25° 07' 18.80" 1.000E-01 0.612 F 0.192 0.063 17.9 V 0.70 -0.62 c 691 0.37 Yes Yes
2004YD5 O C t 2004-12-20.36964 1.000E-05 05:31:45.130 1.500E-01 0.612 F -0.074 0.057 +25° 33' 08.40" 1.000E-01 0.612 F 0.192 -0.264 18.7 V 0.70 -0.31 c 691 0.58 Yes Yes
2004YD5 O C t 2004-12-20.37560 1.000E-05 05:31:43.020 1.500E-01 0.612 F -0.074 0.953 +25° 34' 15.60" 1.000E-01 0.612 F 0.192 -2.035 18.7 V 0.70 -0.34 c 691 3.05 No Yes
2004YD5 O C t 2004-12-20.37947 1.000E-05 05:31:41.590 1.500E-01 0.612 F -0.074 -0.011 +25° 35' 01.40" 1.000E-01 0.612 F 0.192 0.118 17.3 V 0.70 -1.76 c 691 0.26 Yes Yes
2004QQ O C 2004-12-21.20286 1.000E-05 05:33:30.730 1.500E-01 0.500 F -0.138 0.312 +27° 19' 21.80" 1.000E-01 0.500 F -0.015 -0.189 19.1 V 0.70 0.40 c 691 0.73 Yes Yes
2004QQ O C 2004-12-21.22843 1.000E-05 05:33:27.860 1.500E-01 0.500 F -0.138 0.040 +27° 19' 14.60" 1.000E-01 0.500 F -0.015 -0.124 19.0 V 0.70 0.30 c 691 0.26 Yes Yes
2004QQ O C I 2004-12-21.25425 1.000E-05 05:33:25.000 1.500E-01 0.500 F -0.138 0.320 +27° 19' 07.50" 1.000E-01 0.500 F -0.015 0.190 19.8 V 0.70 1.09 c 691 0.75 Yes Yes
1996AJ1 O C 2005-01-07.37458 1.000E-05 08:58:25.340 1.500E-01 0.500 F 0.158 1.094 +20° 19' 42.10" 1.000E-01 0.500 F 0.472 -0.264 21.0 V 0.70 0.50 c 691 2.27 Yes Yes
1996AJ1 O C 2005-01-07.39823 1.000E-05 08:58:17.770 1.500E-01 0.500 F 0.158 -0.875 +20° 20' 15.00" 1.000E-01 0.500 F 0.472 0.264 20.6 V 0.70 0.10 c 691 1.85 Yes Yes
1996AJ1 O C 2005-01-07.41665 1.000E-05 08:58:12.000 1.500E-01 0.500 F 0.077 -0.585 +20° 20' 39.90" 1.000E-01 0.500 F 0.590 -0.063 20.5 V 0.70 0.00 c 691 1.19 Yes Yes
2005AO19 O C 2005-01-13.24162 1.000E-05 08:21:56.600 1.500E-01 0.500 F 0.303 -0.068 +19° 46' 29.60" 1.000E-01 0.500 F 0.144 0.033 20.4 V 0.70 -0.23 c 691 0.19 Yes Yes
2005AY28 O C t 2005-01-13.26203 1.000E-05 08:06:08.780 1.500E-01 0.500 F 0.196 0.767 +18° 46' 39.00" 1.000E-01 0.500 F 0.462 -0.545 c 691 1.90 Yes No
2005AO19 O C 2005-01-13.26710 1.000E-05 08:22:00.480 1.500E-01 0.500 F 0.303 0.442 +19° 47' 00.80" 1.000E-01 0.500 F 0.144 0.111 20.6 V 0.70 -0.03 c 691 1.08 Yes Yes
2005AY28 O C t 2005-01-13.28800 1.000E-05 08:05:59.940 1.500E-01 0.500 F 0.196 0.286 +18° 47' 24.30" 1.000E-01 0.500 F 0.462 -0.477 c 691 1.12 Yes No
2005AO19 O C 2005-01-13.29297 1.000E-05 08:22:04.280 1.500E-01 0.500 F 0.358 -0.321 +19° 47' 31.60" 1.000E-01 0.500 F 0.230 -0.310 20.7 V 0.70 0.07 c 691 1.00 Yes Yes
2005AQ19 O C 2005-01-13.40217 1.000E-05 09:43:30.010 1.500E-01 0.500 F 0.462 -0.256 +09° 04' 50.00" 1.000E-01 0.500 F 0.064 0.309 20.5 V 0.70 0.08 c 691 0.83 Yes Yes
2004XO14 O C 2005-01-13.40720 1.000E-05 09:32:13.470 1.500E-01 0.500 F 0.336 -0.063 +09° 24' 19.90" 1.000E-01 0.500 F 0.236 0.030 17.5 V 0.70 0.02 c 691 0.14 Yes Yes
2005AQ19 O C 2005-01-13.42763 1.000E-05 09:43:31.270 1.500E-01 0.500 F 0.462 -0.476 +09° 06' 10.50" 1.000E-01 0.500 F 0.064 -0.028 20.4 V 0.70 -0.02 c 691 1.01 Yes Yes
2004XO14 O C 2005-01-13.43271 1.000E-05 09:32:11.880 1.500E-01 0.500 F 0.336 -0.056 +09° 25' 12.10" 1.000E-01 0.500 F 0.236 -0.128 17.5 V 0.70 0.02 c 691 0.28 Yes Yes
2005AQ19 O C 2005-01-13.45299 1.000E-05 09:43:32.580 1.500E-01 0.500 F 0.462 0.042 +09° 07' 31.10" 1.000E-01 0.500 F 0.064 0.117 20.3 V 0.70 -0.12 c 691 0.26 Yes Yes
2004XO14 O C 2005-01-13.45816 1.000E-05 09:32:10.300 1.500E-01 0.500 F 0.336 0.000 +09° 26' 04.30" 1.000E-01 0.500 F 0.236 -0.125 17.5 V 0.70 0.02 c 691 0.25 Yes Yes
2005AZ28 O C 2005-01-15.37295 1.000E-05 09:02:39.780 1.500E-01 0.500 F 0.343 0.108 +20° 36' 24.50" 1.000E-01 0.500 F 0.434 -0.136 20.9 V 0.70 0.01 c 691 0.42 Yes Yes
2005AZ28 O C 2005-01-15.39864 1.000E-05 09:02:36.130 1.500E-01 0.500 F 0.343 -0.015 +20° 36' 11.00" 1.000E-01 0.500 F 0.434 -0.052 20.6 V 0.70 -0.29 c 691 0.13 Yes Yes
2005AZ28 O C 2005-01-15.42496 1.000E-05 09:02:32.430 1.500E-01 0.500 F 0.343 0.089 +20° 35' 56.40" 1.000E-01 0.500 F 0.434 -0.259 20.8 V 0.70 -0.09 c 691 0.66 Yes Yes
2005AY28 O C 2005-01-16.18602 1.000E-05 07:49:01.360 1.500E-01 0.500 F 0.448 -0.630 +20° 12' 58.60" 1.000E-01 0.500 F 0.626 -0.027 19.3 V 0.70 0.07 c 691 1.28 Yes Yes
1990UQ O C 2005-01-16.19403 1.000E-05 07:38:18.450 1.500E-01 0.500 F 0.363 0.008 +19° 14' 23.40" 1.000E-01 0.500 F 0.530 -0.359 20.5 V 0.70 0.01 c 691 0.72 Yes Yes
2005AY28 O C 2005-01-16.21196 1.000E-05 07:48:51.400 1.500E-01 0.500 F 0.448 -0.153 +20° 13' 46.50" 1.000E-01 0.500 F 0.626 -0.204 20.0 V 0.70 0.76 c 691 0.51 Yes Yes
1990UQ O C 2005-01-16.21998 1.000E-05 07:38:15.800 1.500E-01 0.500 F 0.363 0.256 +19° 14' 32.20" 1.000E-01 0.500 F 0.530 -0.051 21.1 V 0.70 0.60 c 691 0.52 Yes Yes
2005AY28 O C 2005-01-16.23903 1.000E-05 07:48:40.910 1.500E-01 0.500 F 0.448 -0.348 +20° 14' 36.70" 1.000E-01 0.500 F 0.626 0.037 19.4 V 0.70 0.16 c 691 0.71 Yes Yes
1990UQ O C 2005-01-16.24705 1.000E-05 07:38:12.990 1.500E-01 0.500 F 0.363 -0.049 +19° 14' 40.70" 1.000E-01 0.500 F 0.530 -0.363 20.8 V 0.70 0.30 c 691 0.73 Yes Yes
2008XE3 O C 2005-01-16.42010 1.000E-05 09:15:53.190 1.500E-01 0.500 F 0.167 -0.005 +17° 10' 26.70" 1.000E-01 0.500 F 0.282 -0.187 20.3 V 0.70 -0.05 c 691 0.37 Yes Yes
2005CL O C H 2005-01-16.42271 1.000E-05 09:21:54.530 1.500E-01 0.500 F 0.384 0.186 +17° 55' 03.00" 1.000E-01 0.500 F 0.446 -0.798 c 691 1.66 Yes No
2002AV31 O C 2005-01-16.43024 1.000E-05 09:46:11.460 1.500E-01 0.500 F 0.346 0.145 +17° 06' 49.40" 1.000E-01 0.500 F 0.414 -0.197 19.5 V 0.70 -0.06 c 691 0.49 Yes Yes
2008XE3 O C 2005-01-16.44612 1.000E-05 09:15:51.350 1.500E-01 0.500 F 0.167 -0.168 +17° 10' 31.30" 1.000E-01 0.500 F 0.282 -0.497 20.5 V 0.70 0.15 c 691 1.05 Yes Yes
2005CL O C H 2005-01-16.44874 1.000E-05 09:21:51.960 1.500E-01 0.500 F 0.384 -0.306 +17° 55' 12.80" 1.000E-01 0.500 F 0.446 0.047 c 691 0.63 Yes No
2002AV31 O C 2005-01-16.45648 1.000E-05 09:46:08.990 1.500E-01 0.500 F 0.346 0.138 +17° 08' 13.90" 1.000E-01 0.500 F 0.414 0.046 19.4 V 0.70 -0.16 c 691 0.29 Yes Yes
2008XE3 O C 2005-01-16.47208 1.000E-05 09:15:49.560 1.500E-01 0.500 F 0.167 0.285 +17° 10' 36.20" 1.000E-01 0.500 F 0.282 -0.468 20.5 V 0.70 0.15 c 691 1.10 Yes Yes
2005CL O C H 2005-01-16.47483 1.000E-05 09:21:49.420 1.500E-01 0.500 F 0.384 -0.347 +17° 55' 21.10" 1.000E-01 0.500 F 0.446 -0.567 c 691 1.35 Yes No
2002AV31 O C 2005-01-16.48243 1.000E-05 09:46:06.560 1.500E-01 0.500 F 0.346 0.101 +17° 09' 36.90" 1.000E-01 0.500 F 0.414 -0.090 19.5 V 0.70 -0.06 c 691 0.27 Yes Yes
2005BO1 O C 2005-01-17.18247 1.000E-05 07:47:33.310 1.500E-01 0.500 F 0.082 -0.970 +23° 40' 49.30" 1.000E-01 0.500 F 0.491 1.077 20.4 V 0.70 0.69 c 691 2.95 Yes Yes
Ondaatje O C 2005-01-17.20615 1.000E-05 07:17:54.010 1.500E-01 0.500 F 0.020 -0.090 +23° 00' 27.10" 1.000E-01 0.500 F 0.239 0.297 19.8 V 0.70 1.55 c 691 0.62 Yes Yes
2005BO1 O C 2005-01-17.21615 1.000E-05 07:47:24.540 1.500E-01 0.500 F 0.082 0.001 +23° 42' 06.20" 1.000E-01 0.500 F 0.491 0.187 20.1 V 0.70 0.39 c 691 0.38 Yes Yes
Ondaatje O C 2005-01-17.23214 1.000E-05 07:17:51.310 1.500E-01 0.500 F 0.020 0.040 +23° 00' 54.40" 1.000E-01 0.500 F 0.239 -0.157 19.0 V 0.70 0.74 c 691 0.32 Yes Yes
2005BO1 O C 2005-01-17.24238 1.000E-05 07:47:17.630 1.500E-01 0.500 F 0.082 0.150 +23° 43' 06.10" 1.000E-01 0.500 F 0.491 -0.219 20.6 V 0.70 0.88 c 691 0.54 Yes Yes
Ondaatje O C 2005-01-17.25921 1.000E-05 07:17:48.470 1.500E-01 0.500 F 0.020 -0.137 +23° 01' 23.50" 1.000E-01 0.500 F 0.239 0.121 19.6 V 0.70 1.34 c 691 0.37 Yes Yes
2004QZ2 O C 2005-01-17.34732 1.000E-05 08:45:33.560 1.500E-01 0.500 F 0.128 -0.109 +14° 13' 12.70" 1.000E-01 0.500 F 0.416 -0.052 17.1 V 0.70 0.16 c 691 0.24 Yes Yes
2005EC224 O C 2005-01-17.35503 1.000E-05 09:04:14.370 1.500E-01 0.500 F 0.156 0.455 +13° 25' 44.80" 1.000E-01 0.500 F 0.368 -0.757 21.3 V 0.70 0.24 c 691 1.77 Yes Yes
2004QZ2 O C 2005-01-17.37306 1.000E-05 08:45:32.260 1.500E-01 0.500 F 0.128 -0.196 +14° 13' 18.70" 1.000E-01 0.500 F 0.416 -0.156 17.1 V 0.70 0.16 c 691 0.50 Yes Yes
2005EC224 O C 2005-01-17.38065 1.000E-05 09:04:12.650 1.500E-01 0.500 F 0.156 0.210 +13° 25' 52.20" 1.000E-01 0.500 F 0.368 -0.648 21.1 V 0.70 0.04 c 691 1.36 Yes Yes
2004QZ2 O C 2005-01-17.40441 1.000E-05 08:45:30.700 1.500E-01 0.500 F 0.128 -0.077 +14° 13' 26.00" 1.000E-01 0.500 F 0.416 -0.108 17.1 V 0.70 0.16 c 691 0.27 Yes Yes
2005EC224 O C 2005-01-17.41191 1.000E-05 09:04:10.570 1.500E-01 0.500 F 0.156 0.180 +13° 26' 01.10" 1.000E-01 0.500 F 0.368 -0.601 21.3 V 0.70 0.24 c 691 1.26 Yes Yes
2011QC46 O C 2005-01-17.44631 1.000E-05 09:29:47.490 1.500E-01 0.500 F 0.336 0.280 +11° 35' 30.50" 1.000E-01 0.500 F 0.202 -0.071 19.5 V 0.70 -0.43 c 691 0.63 Yes Yes
2004XO14 O C 2005-01-17.44631 1.000E-05 09:28:04.020 1.500E-01 0.500 F 0.336 -0.083 +11° 43' 04.40" 1.000E-01 0.500 F 0.202 0.139 18.8 V 0.70 1.38 c 691 0.32 Yes Yes
2011QC46 O C 2005-01-17.47868 1.000E-05 09:29:45.040 1.500E-01 0.500 F 0.336 0.280 +11° 35' 26.90" 1.000E-01 0.500 F 0.202 -0.104 20.0 V 0.70 0.07 c 691 0.65 Yes Yes
2004XO14 O C 2005-01-17.47868 1.000E-05 09:28:01.800 1.500E-01 0.500 F 0.336 0.004 +11° 44' 10.80" 1.000E-01 0.500 F 0.202 0.029 17.4 V 0.70 -0.02 c 691 0.06 Yes Yes
2011QC46 O C 2005-01-17.50418 1.000E-05 09:29:43.120 1.500E-01 0.500 F 0.336 0.221 +11° 35' 24.20" 1.000E-01 0.500 F 0.202 0.061 20.1 V 0.70 0.17 c 691 0.49 Yes Yes
2004XO14 O C 2005-01-17.50418 1.000E-05 09:28:00.060 1.500E-01 0.500 F 0.336 0.051 +11° 45' 03.10" 1.000E-01 0.500 F 0.202 -0.014 17.5 V 0.70 0.08 c 691 0.11 Yes Yes
Nyx O C 2005-01-18.10959 1.000E-05 04:33:36.480 1.500E-01 0.500 F 0.037 0.007 +19° 46' 45.50" 1.000E-01 0.500 F 0.195 -0.175 17.8 V 0.70 -0.03 c 691 0.35 Yes Yes
Nyx O C 2005-01-18.12552 1.000E-05 04:33:38.630 1.500E-01 0.500 F 0.037 -0.427 +19° 46' 48.60" 1.000E-01 0.500 F 0.195 -0.181 17.6 V 0.70 -0.24 c 691 0.93 Yes Yes
Nyx O C 2005-01-18.14158 1.000E-05 04:33:40.860 1.500E-01 0.500 F 0.037 0.067 +19° 46' 51.80" 1.000E-01 0.500 F 0.195 -0.061 17.8 V 0.70 -0.04 c 691 0.18 Yes Yes
2005BY1 O C 2005-01-18.15759 1.000E-05 07:15:53.690 1.500E-01 0.500 F 0.168 -0.232 +25° 41' 17.10" 1.000E-01 0.500 F 0.259 0.006 20.3 V 0.70 0.13 c 691 0.48 Yes Yes
2005BY1 O C 2005-01-18.18716 1.000E-05 07:15:50.330 1.500E-01 0.500 F 0.168 0.215 +25° 41' 06.90" 1.000E-01 0.500 F 0.259 -0.108 20.0 V 0.70 -0.17 c 691 0.50 Yes Yes
2005BY1 O C 2005-01-18.21247 1.000E-05 07:15:47.410 1.500E-01 0.500 F 0.168 0.114 +25° 40' 58.30" 1.000E-01 0.500 F 0.259 -0.001 20.0 V 0.70 -0.17 c 691 0.24 Yes Yes
2000UR13 O C 2005-01-18.25726 1.000E-05 07:18:26.770 1.500E-01 0.500 F 0.253 -0.109 +26° 29' 41.60" 1.000E-01 0.500 F 0.143 -0.072 19.2 V 0.70 0.29 c 691 0.26 Yes Yes
2000UR13 O C 2005-01-18.28380 1.000E-05 07:18:24.350 1.500E-01 0.500 F 0.253 -0.027 +26° 29' 41.80" 1.000E-01 0.500 F 0.143 -0.042 19.2 V 0.70 0.29 c 691 0.10 Yes Yes
2000UR13 O C 2005-01-18.31565 1.000E-05 07:18:21.430 1.500E-01 0.500 F 0.253 -0.143 +26° 29' 41.90" 1.000E-01 0.500 F 0.143 -0.048 19.2 V 0.70 0.29 c 691 0.30 Yes Yes
2000WO67 O C 2005-01-18.32619 1.000E-05 08:24:34.460 1.500E-01 0.500 F 0.297 -0.033 +22° 57' 47.70" 1.000E-01 0.500 F 0.398 -0.090 20.6 V 0.70 0.08 c 691 0.19 Yes Yes
2000WO67 O C 2005-01-18.35980 1.000E-05 08:24:31.680 1.500E-01 0.500 F 0.297 0.099 +22° 58' 01.80" 1.000E-01 0.500 F 0.398 -0.122 20.3 V 0.70 -0.22 c 691 0.32 Yes Yes
2000WO67 O C 2005-01-18.38614 1.000E-05 08:24:29.470 1.500E-01 0.500 F 0.297 -0.251 +22° 58' 12.90" 1.000E-01 0.500 F 0.398 -0.040 20.3 V 0.70 -0.21 c 691 0.51 Yes Yes
2005BE2 O C 2005-01-18.40586 1.000E-05 08:47:15.610 1.500E-01 0.500 F 0.142 -0.064 +24° 22' 11.40" 1.000E-01 0.500 F 0.427 -0.243 20.5 V 0.70 -0.01 c 691 0.51 Yes Yes
2005BS1 O C H 2005-01-18.41359 1.000E-05 09:08:15.790 1.500E-01 0.500 F 0.226 0.332 +23° 32' 10.00" 1.000E-01 0.500 F 0.403 -0.237 c 691 0.89 Yes No
2005BE2 O C 2005-01-18.43944 1.000E-05 08:47:12.390 1.500E-01 0.500 F 0.142 0.245 +24° 22' 32.30" 1.000E-01 0.500 F 0.427 -0.605 20.7 V 0.70 0.19 c 691 1.32 Yes Yes
2005BS1 O C H 2005-01-18.44735 1.000E-05 09:08:17.770 1.500E-01 0.500 F 0.226 1.193 +23° 31' 58.50" 1.000E-01 0.500 F 0.403 -0.250 c 691 2.85 Yes No
2005BE2 O C 2005-01-18.46606 1.000E-05 08:47:09.810 1.500E-01 0.500 F 0.142 0.032 +24° 22' 49.40" 1.000E-01 0.500 F 0.427 -0.290 20.8 V 0.70 0.29 c 691 0.59 Yes Yes
2005BS1 O C H 2005-01-18.47368 1.000E-05 09:08:19.520 1.500E-01 0.500 F 0.226 1.799 +23° 31' 47.00" 1.000E-01 0.500 F 0.403 -0.640 c 691 3.32 No No
2005AV3 O C 2005-01-19.25119 1.000E-05 08:36:46.770 1.500E-01 0.500 F 0.364 -0.269 +16° 45' 30.20" 1.000E-01 0.500 F 0.263 -0.316 21.3 V 0.70 0.83 c 691 0.87 Yes Yes
2005AV3 O C 2005-01-19.27713 1.000E-05 08:36:44.230 1.500E-01 0.500 F 0.364 -0.218 +16° 46' 13.10" 1.000E-01 0.500 F 0.263 -0.568 20.8 V 0.70 0.33 c 691 1.32 Yes Yes
2005AV3 O C 2005-01-19.30245 1.000E-05 08:36:41.760 1.500E-01 0.500 F 0.279 0.169 +16° 46' 55.90" 1.000E-01 0.500 F 0.383 0.103 20.7 V 0.70 0.23 c 691 0.41 Yes Yes
2005CL O C H 2005-01-19.33191 1.000E-05 09:17:00.400 1.500E-01 0.500 F 0.311 -0.042 +18° 13' 07.20" 1.000E-01 0.500 F 0.470 -0.663 c 691 1.35 Yes No
2005CL O C H 2005-01-19.35972 1.000E-05 09:16:57.250 1.500E-01 0.500 F 0.311 0.218 +18° 13' 18.40" 1.000E-01 0.500 F 0.470 -0.510 c 691 1.13 Yes No
2005CL O C H 2005-01-19.38564 1.000E-05 09:16:54.270 1.500E-01 0.500 F 0.390 -0.174 +18° 13' 28.30" 1.000E-01 0.500 F 0.417 -0.774 c 691 1.61 Yes No
2002AV31 O C 2005-01-19.40367 1.000E-05 09:41:47.560 1.500E-01 0.500 F 0.362 0.228 +19° 45' 14.60" 1.000E-01 0.500 F 0.475 0.050 19.6 V 0.70 0.11 c 691 0.47 Yes Yes
2002AV31 O C 2005-01-19.42927 1.000E-05 09:41:44.880 1.500E-01 0.500 F 0.362 0.045 +19° 46' 35.10" 1.000E-01 0.500 F 0.475 -0.045 19.5 V 0.70 0.01 c 691 0.12 Yes Yes
2002AV31 O C 2005-01-19.45502 1.000E-05 09:41:42.200 1.500E-01 0.500 F 0.362 -0.069 +19° 47' 56.00" 1.000E-01 0.500 F 0.475 0.015 19.6 V 0.70 0.11 c 691 0.15 Yes Yes
1986DA O C 2005-02-01.47197 1.000E-05 14:37:49.610 1.500E-01 0.500 F 0.287 -0.087 -07° 03' 53.20" 1.000E-01 0.500 F 0.242 -0.065 17.7 V 0.70 0.43 c 691 0.22 Yes Yes
2005CJ O C 2005-02-01.47965 1.000E-05 14:37:23.070 1.500E-01 0.500 F 0.232 0.056 -08° 48' 48.10" 1.000E-01 0.500 F 0.401 0.065 18.3 V 0.70 0.04 c 691 0.18 Yes Yes
1986DA O C 2005-02-01.49753 1.000E-05 14:37:56.280 1.500E-01 0.500 F 0.287 -0.033 -07° 04' 26.10" 1.000E-01 0.500 F 0.242 -0.041 17.8 V 0.70 0.53 c 691 0.11 Yes Yes
2005CJ O C 2005-02-01.50524 1.000E-05 14:37:08.230 1.500E-01 0.500 F 0.232 -0.081 -08° 48' 06.00" 1.000E-01 0.500 F 0.401 0.018 18.4 V 0.70 0.14 c 691 0.17 Yes Yes
1986DA O C 2005-02-01.52297 1.000E-05 14:38:02.910 1.500E-01 0.500 F 0.370 -0.096 -07° 04' 58.80" 1.000E-01 0.500 F 0.226 0.005 17.9 V 0.70 0.63 c 691 0.19 Yes Yes
2005CJ O C 2005-02-01.53061 1.000E-05 14:36:53.520 1.500E-01 0.500 F 0.232 0.058 -08° 47' 24.10" 1.000E-01 0.500 F 0.401 -0.108 18.5 V 0.70 0.24 c 691 0.25 Yes Yes
2002LJ3 O C 2005-02-02.21845 1.000E-05 09:30:52.870 1.500E-01 0.500 F 0.110 -0.212 +19° 24' 17.50" 1.000E-01 0.500 F 0.327 -0.019 19.2 V 0.70 0.50 c 691 0.43 Yes Yes
2005CK O C t 2005-02-02.24101 1.000E-05 09:49:40.360 1.500E-01 0.500 F 0.378 0.048 +17° 33' 38.40" 1.000E-01 0.500 F 0.390 0.546 19.0 V 0.70 0.48 c 691 1.34 Yes Yes
2002LJ3 O C 2005-02-02.25125 1.000E-05 09:30:49.300 1.500E-01 0.500 F 0.110 -0.137 +19° 24' 52.20" 1.000E-01 0.500 F 0.327 0.047 19.1 V 0.70 0.40 c 691 0.29 Yes Yes
2005CK O C t 2005-02-02.26926 1.000E-05 09:48:58.360 1.500E-01 0.500 F 0.347 0.588 +17° 13' 33.20" 1.000E-01 0.500 F 0.415 0.084 18.4 V 0.70 -0.11 c 691 1.39 Yes Yes
2002LJ3 O C 2005-02-02.27717 1.000E-05 09:30:46.490 1.500E-01 0.500 F 0.110 0.279 +19° 25' 19.50" 1.000E-01 0.500 F 0.327 0.093 18.8 V 0.70 0.10 c 691 0.59 Yes Yes
2005CK O C t 2005-02-02.29550 1.000E-05 09:48:19.020 1.500E-01 0.500 F 0.347 -0.705 +16° 54' 49.70" 1.000E-01 0.500 F 0.415 -0.854 18.2 V 0.70 -0.31 c 691 2.63 Yes Yes
2000YJ66 O C 2005-02-02.39765 1.000E-05 10:41:01.060 1.500E-01 0.500 F 0.519 0.146 +04° 59' 47.80" 1.000E-01 0.500 F 0.234 -0.151 20.6 V 0.70 0.41 c 691 0.42 Yes Yes
1998WT O C 2005-02-02.40013 1.000E-05 10:47:39.730 1.500E-01 0.500 F 0.424 -0.048 +04° 45' 31.00" 1.000E-01 0.500 F 0.294 -0.015 17.1 V 0.70 0.17 c 691 0.10 Yes Yes
2000YJ66 O C 2005-02-02.42379 1.000E-05 10:40:59.620 1.500E-01 0.500 F 0.519 -0.472 +04° 59' 53.50" 1.000E-01 0.500 F 0.234 0.031 19.9 V 0.70 -0.29 c 691 0.95 Yes Yes
1998WT O C 2005-02-02.42630 1.000E-05 10:47:37.790 1.500E-01 0.500 F 0.424 -0.059 +04° 45' 23.90" 1.000E-01 0.500 F 0.294 0.052 17.0 V 0.70 0.08 c 691 0.16 Yes Yes
2000YJ66 O C 2005-02-02.45348 1.000E-05 10:40:58.060 1.500E-01 0.500 F 0.519 -0.061 +04° 59' 59.60" 1.000E-01 0.500 F 0.234 -0.132 20.5 V 0.70 0.31 c 691 0.29 Yes Yes
1998WT O C 2005-02-02.45597 1.000E-05 10:47:35.590 1.500E-01 0.500 F 0.424 -0.136 +04° 45' 15.70" 1.000E-01 0.500 F 0.294 0.029 17.0 V 0.70 0.08 c 691 0.28 Yes Yes
2005CJ O C 2005-02-02.48146 1.000E-05 14:28:22.550 1.500E-01 0.500 F 0.411 0.380 -08° 21' 08.30" 1.000E-01 0.500 F 0.265 0.080 18.6 V 0.70 0.39 c 691 0.79 Yes Yes
2005CJ O C 2005-02-02.48613 1.000E-05 14:28:19.930 1.500E-01 0.500 F 0.411 -0.255 -08° 21' 00.70" 1.000E-01 0.500 F 0.265 0.118 18.4 V 0.70 0.19 c 691 0.57 Yes Yes
2005CJ O C 2005-02-02.49216 1.000E-05 14:28:16.630 1.500E-01 0.500 F 0.411 0.173 -08° 20' 51.10" 1.000E-01 0.500 F 0.265 -0.057 18.5 V 0.70 0.29 c 691 0.37 Yes Yes
1990SM O C 2005-02-04.16626 1.000E-05 04:40:05.780 1.500E-01 0.500 F -0.031 0.498 +11° 16' 12.70" 1.000E-01 0.500 F 0.089 0.017 21.1 V 0.70 -0.48 c 691 1.00 Yes Yes
1990SM O C 2005-02-04.19072 1.000E-05 04:40:05.080 1.500E-01 0.500 F -0.031 0.026 +11° 16' 18.50" 1.000E-01 0.500 F 0.089 0.193 21.2 V 0.70 -0.38 c 691 0.39 Yes Yes
1990SM O C 2005-02-04.21355 1.000E-05 04:40:04.430 1.500E-01 0.500 F -0.031 -0.404 +11° 16' 23.20" 1.000E-01 0.500 F 0.089 -0.346 21.6 V 0.70 0.02 c 691 1.07 Yes Yes
2005CM O C 2005-02-04.25437 1.000E-05 09:03:20.940 1.500E-01 0.500 F 0.228 -0.071 +13° 58' 04.70" 1.000E-01 0.500 F 0.330 -0.228 19.6 V 0.70 0.44 c 691 0.50 Yes Yes
2005CM O C 2005-02-04.28029 1.000E-05 09:03:28.210 1.500E-01 0.500 F 0.228 0.179 +13° 57' 25.80" 1.000E-01 0.500 F 0.330 -0.431 19.5 V 0.70 0.33 c 691 0.98 Yes Yes
2005CM O C 2005-02-04.30916 1.000E-05 09:03:36.240 1.500E-01 0.500 F 0.228 0.159 +13° 56' 42.40" 1.000E-01 0.500 F 0.330 -0.295 19.7 V 0.70 0.53 c 691 0.71 Yes Yes
2005CV25 O C 2005-02-04.32464 1.000E-05 10:04:23.590 1.500E-01 0.500 F 0.334 -0.033 +19° 55' 41.30" 1.000E-01 0.500 F 0.497 -0.100 20.4 V 0.70 -0.06 c 691 0.21 Yes Yes
2005CV25 O C 2005-02-04.33454 1.000E-05 10:04:21.790 1.500E-01 0.500 F 0.334 -0.068 +19° 55' 36.70" 1.000E-01 0.500 F 0.497 -0.297 20.4 V 0.70 -0.06 c 691 0.61 Yes Yes
2005CV25 O C I 2005-02-04.34620 1.000E-05 10:04:19.750 1.500E-01 0.500 F 0.334 1.030 +19° 55' 33.00" 1.000E-01 0.500 F 0.497 1.210 21.2 V 0.70 0.74 c 691 3.17 No Yes
1999CU3 O C 2005-02-09.26795 1.000E-05 10:30:43.640 1.500E-01 0.500 F 0.296 -0.283 +14° 49' 51.30" 1.000E-01 0.500 F 0.324 -0.133 18.8 V 0.70 0.31 c 691 0.63 Yes Yes
1999CU3 O C 2005-02-09.29673 1.000E-05 10:30:40.510 1.500E-01 0.500 F 0.296 -0.084 +14° 49' 59.50" 1.000E-01 0.500 F 0.324 -0.039 18.8 V 0.70 0.31 c 691 0.19 Yes Yes
1999CU3 O C 2005-02-09.32200 1.000E-05 10:30:37.730 1.500E-01 0.500 F 0.296 -0.249 +14° 50' 06.60" 1.000E-01 0.500 F 0.324 -0.006 18.7 V 0.70 0.21 c 691 0.50 Yes Yes
Davidharvey O C 2005-02-09.36004 1.000E-05 10:49:41.890 1.500E-01 0.500 F 0.375 -0.053 +10° 44' 12.50" 1.000E-01 0.500 F 0.227 -0.101 17.3 V 0.70 -0.09 c 691 0.23 Yes Yes
2001KP41 O C 2005-02-09.36258 1.000E-05 10:45:48.440 1.500E-01 0.500 F 0.488 -0.071 +09° 57' 52.60" 1.000E-01 0.500 F 0.287 0.010 21.0 V 0.70 0.20 c 691 0.14 Yes Yes
Davidharvey O C 2005-02-09.38569 1.000E-05 10:49:39.820 1.500E-01 0.500 F 0.375 -0.537 +10° 44' 13.50" 1.000E-01 0.500 F 0.227 -0.118 18.6 V 0.70 1.21 c 691 1.11 Yes Yes
2001KP41 O C 2005-02-09.38823 1.000E-05 10:45:47.300 1.500E-01 0.500 F 0.488 -0.202 +09° 58' 02.10" 1.000E-01 0.500 F 0.287 -0.087 20.7 V 0.70 -0.10 c 691 0.44 Yes Yes
Davidharvey O C 2005-02-09.41102 1.000E-05 10:49:37.840 1.500E-01 0.500 F 0.375 -0.084 +10° 44' 14.50" 1.000E-01 0.500 F 0.227 -0.069 17.4 V 0.70 0.01 c 691 0.22 Yes Yes
2001KP41 O C 2005-02-09.41355 1.000E-05 10:45:46.190 1.500E-01 0.500 F 0.488 -0.104 +09° 58' 11.50" 1.000E-01 0.500 F 0.287 -0.151 20.9 V 0.70 0.11 c 691 0.37 Yes Yes
1993QA O C 2005-02-09.41752 1.000E-05 14:18:23.370 1.500E-01 0.500 F 0.404 -0.040 -06° 55' 56.00" 1.000E-01 0.500 F 0.289 0.195 17.7 V 0.70 0.25 c 691 0.40 Yes Yes
1993QA O C 2005-02-09.44281 1.000E-05 14:18:26.540 1.500E-01 0.500 F 0.404 -0.139 -06° 54' 46.30" 1.000E-01 0.500 F 0.289 0.139 17.6 V 0.70 0.15 c 691 0.39 Yes Yes
1993QA O C 2005-02-09.46865 1.000E-05 14:18:29.780 1.500E-01 0.500 F 0.404 0.181 -06° 53' 34.80" 1.000E-01 0.500 F 0.289 0.280 17.8 V 0.70 0.35 c 691 0.67 Yes Yes
2004LB6 O C 2005-02-14.18782 1.000E-05 09:51:28.770 1.500E-01 0.500 F 0.191 -0.184 +07° 25' 28.60" 1.000E-01 0.500 F 0.166 0.049 20.0 V 0.70 0.29 c 691 0.38 Yes Yes
2004LB6 O C 2005-02-14.21316 1.000E-05 09:51:25.990 1.500E-01 0.500 F 0.191 -1.062 +07° 25' 47.90" 1.000E-01 0.500 F 0.166 -0.181 19.5 V 0.70 -0.21 c 691 2.17 Yes Yes
2004LB6 O C 2005-02-14.23929 1.000E-05 09:51:23.210 1.500E-01 0.500 F 0.191 -0.546 +07° 26' 08.10" 1.000E-01 0.500 F 0.166 -0.093 20.0 V 0.70 0.29 c 691 1.11 Yes Yes
2005EA60 O C 2005-02-14.25283 1.000E-05 10:11:52.250 1.500E-01 0.500 F 0.531 -0.022 +12° 01' 33.10" 1.000E-01 0.500 F 0.337 -0.208 19.2 V 0.70 -0.01 c 691 0.42 Yes Yes
2011CP4 O C H 2005-02-14.27656 1.000E-05 10:11:40.980 1.500E-01 0.500 F 0.129 0.211 +10° 03' 39.00" 1.000E-01 0.500 F 0.035 -1.045 o 691 2.23 Yes No
2005EA60 O C 2005-02-14.28255 1.000E-05 10:11:50.650 1.500E-01 0.500 F 0.531 0.022 +12° 01' 33.50" 1.000E-01 0.500 F 0.337 -0.162 19.2 V 0.70 -0.01 c 691 0.33 Yes Yes
2011CP4 O C H 2005-02-14.30886 1.000E-05 10:11:24.950 1.500E-01 0.500 F 0.129 -0.753 +10° 05' 31.10" 1.000E-01 0.500 F 0.035 -0.238 o 691 1.85 Yes No
2005EA60 O C 2005-02-14.31394 1.000E-05 10:11:48.950 1.500E-01 0.500 F 0.531 0.108 +12° 01' 33.80" 1.000E-01 0.500 F 0.337 -0.112 19.6 V 0.70 0.39 c 691 0.31 Yes Yes
1999CU3 O C 2005-03-01.21286 1.000E-05 09:47:41.380 1.500E-01 0.500 F 0.275 -0.488 +16° 10' 56.80" 1.000E-01 0.500 F 0.339 -0.170 18.3 V 0.70 0.16 c 691 1.03 Yes Yes
1999CU3 O C 2005-03-01.22960 1.000E-05 09:47:38.950 1.500E-01 0.500 F 0.275 -0.171 +16° 10' 59.60" 1.000E-01 0.500 F 0.339 -0.092 18.3 V 0.70 0.16 c 691 0.39 Yes Yes
1999CU3 O C 2005-03-01.24549 1.000E-05 09:47:36.620 1.500E-01 0.500 F 0.275 -0.178 +16° 11' 02.10" 1.000E-01 0.500 F 0.339 -0.146 18.2 V 0.70 0.06 c 691 0.46 Yes Yes
2004EP20 O C 2005-03-01.26421 1.000E-05 12:08:04.590 1.500E-01 0.500 F 0.464 -0.197 +05° 49' 56.70" 1.000E-01 0.500 F 0.377 -0.044 19.8 V 0.70 0.61 c 691 0.40 Yes Yes
2004EP20 O C 2005-03-01.29948 1.000E-05 12:08:00.220 1.500E-01 0.500 F 0.464 0.133 +05° 51' 09.40" 1.000E-01 0.500 F 0.377 -0.172 19.5 V 0.70 0.31 c 691 0.44 Yes Yes
2004EP20 O C 2005-03-01.32594 1.000E-05 12:07:56.910 1.500E-01 0.500 F 0.464 0.151 +05° 52' 04.20" 1.000E-01 0.500 F 0.377 0.009 19.5 V 0.70 0.32 c 691 0.30 Yes Yes
Rhiannon O C 2005-03-03.25502 1.000E-05 11:52:13.510 1.500E-01 0.500 F 0.357 -0.121 +01° 52' 57.80" 1.000E-01 0.500 F 0.545 0.065 20.1 V 0.70 -0.04 c 691 0.28 Yes Yes
Rhiannon O C 2005-03-03.28121 1.000E-05 11:52:11.760 1.500E-01 0.500 F 0.357 -0.455 +01° 53' 33.10" 1.000E-01 0.500 F 0.545 0.076 20.1 V 0.70 -0.04 c 691 0.93 Yes Yes
Rhiannon O C 2005-03-03.30665 1.000E-05 11:52:10.100 1.500E-01 0.500 F 0.357 -0.088 +01° 54' 07.50" 1.000E-01 0.500 F 0.545 0.198 20.0 V 0.70 -0.14 c 691 0.43 Yes Yes
1991FA O C 2005-03-03.41337 1.000E-05 13:06:19.560 1.500E-01 0.500 F 0.413 -0.135 -09° 22' 26.70" 1.000E-01 0.500 F 0.392 -0.388 19.3 V 0.70 0.16 c 691 0.82 Yes Yes
1991FA O C 2005-03-03.43917 1.000E-05 13:06:17.780 1.500E-01 0.500 F 0.413 0.059 -09° 22' 20.60" 1.000E-01 0.500 F 0.392 -0.296 19.4 V 0.70 0.26 c 691 0.60 Yes Yes
1991FA O C 2005-03-03.46604 1.000E-05 13:06:15.910 1.500E-01 0.500 F 0.413 0.002 -09° 22' 14.20" 1.000E-01 0.500 F 0.392 -0.199 19.4 V 0.70 0.26 c 691 0.40 Yes Yes
Toutatis O C 2005-03-04.11730 1.000E-05 09:03:30.300 1.500E-01 0.500 F 0.559 -0.094 +17° 12' 48.40" 1.000E-01 0.500 F 0.361 -0.116 17.5 V 0.70 0.32 c 691 0.30 Yes Yes
2013QY1 O C 2005-03-04.11730 1.000E-05 09:03:06.020 1.500E-01 0.500 F 0.559 0.090 +17° 18' 44.10" 1.000E-01 0.500 F 0.361 -0.331 20.6 V 0.70 -0.07 c 691 0.70 Yes Yes
Toutatis O C 2005-03-04.13665 1.000E-05 09:03:29.750 1.500E-01 0.500 F 0.559 -0.070 +17° 12' 50.80" 1.000E-01 0.500 F 0.361 -0.098 17.5 V 0.70 0.32 c 691 0.24 Yes Yes
2013QY1 O C 2005-03-04.13665 1.000E-05 09:03:06.110 1.500E-01 0.500 F 0.559 -0.153 +17° 19' 17.30" 1.000E-01 0.500 F 0.361 -0.090 20.7 V 0.70 0.03 c 691 0.41 Yes Yes
Toutatis O C 2005-03-04.15281 1.000E-05 09:03:29.280 1.500E-01 0.500 F 0.559 -0.158 +17° 12' 52.80" 1.000E-01 0.500 F 0.361 -0.061 17.5 V 0.70 0.32 c 691 0.34 Yes Yes
2013QY1 O C 2005-03-04.15281 1.000E-05 09:03:06.210 1.500E-01 0.500 F 0.559 0.078 +17° 19' 44.90" 1.000E-01 0.500 F 0.361 0.038 20.7 V 0.70 0.02 c 691 0.21 Yes Yes
2004EW O C 2005-03-04.18647 1.000E-05 11:14:43.230 1.500E-01 0.500 F 0.484 -0.792 +04° 22' 24.80" 1.000E-01 0.500 F 0.315 -0.285 16.7 V 0.70 0.55 c 691 1.70 Yes Yes
2004EW O C 2005-03-04.21213 1.000E-05 11:14:32.170 1.500E-01 0.500 F 0.484 -1.311 +04° 22' 18.40" 1.000E-01 0.500 F 0.315 0.055 16.4 V 0.70 0.25 c 691 2.66 Yes Yes
2004EW O C 2005-03-04.23821 1.000E-05 11:14:20.960 1.500E-01 0.500 F 0.484 -0.274 +04° 22' 11.20" 1.000E-01 0.500 F 0.315 -0.183 16.4 V 0.70 0.25 c 691 0.67 Yes Yes
1997EH29 O C 2005-03-04.24918 1.000E-05 11:56:41.470 1.500E-01 0.500 F 0.366 -0.172 -02° 06' 38.30" 1.000E-01 0.500 F 0.359 0.036 20.6 V 0.70 0.38 c 691 0.36 Yes Yes
1997EH29 O C 2005-03-04.28045 1.000E-05 11:56:36.810 1.500E-01 0.500 F 0.366 -0.348 -02° 05' 52.80" 1.000E-01 0.500 F 0.359 -0.176 20.3 V 0.70 0.08 c 691 0.79 Yes Yes
1997EH29 O C 2005-03-04.30610 1.000E-05 11:56:33.010 1.500E-01 0.500 F 0.366 -0.017 -02° 05' 15.40" 1.000E-01 0.500 F 0.359 -0.286 20.8 V 0.70 0.58 c 691 0.57 Yes Yes
Rhiannon O C 2005-03-04.40988 1.000E-05 11:50:59.120 1.500E-01 0.500 F 0.544 -0.215 +02° 18' 57.60" 1.000E-01 0.500 F 0.409 0.436 20.3 V 0.70 0.20 c 691 0.98 Yes Yes
Rhiannon O C 2005-03-04.43070 1.000E-05 11:50:57.700 1.500E-01 0.500 F 0.544 -0.514 +02° 19' 25.10" 1.000E-01 0.500 F 0.409 -0.239 20.0 V 0.70 -0.10 c 691 1.14 Yes Yes
Rhiannon O C 2005-03-04.45036 1.000E-05 11:50:56.420 1.500E-01 0.500 F 0.544 0.071 +02° 19' 51.90" 1.000E-01 0.500 F 0.409 -0.042 20.1 V 0.70 0.00 c 691 0.17 Yes Yes
2000QL7 O C 2005-03-08.18583 1.000E-05 11:08:08.390 1.500E-01 0.500 F 0.266 -0.378 -01° 32' 57.70" 1.000E-01 0.500 F 0.179 0.009 17.0 V 0.70 0.25 c 691 0.75 Yes Yes
2000QL7 O C 2005-03-08.21120 1.000E-05 11:08:05.670 1.500E-01 0.500 F 0.266 -0.472 -01° 33' 05.90" 1.000E-01 0.500 F 0.179 0.016 17.0 V 0.70 0.25 c 691 0.94 Yes Yes
2000QL7 O C 2005-03-08.23856 1.000E-05 11:08:02.730 1.500E-01 0.500 F 0.266 -0.534 -01° 33' 14.80" 1.000E-01 0.500 F 0.179 -0.049 17.0 V 0.70 0.25 c 691 1.07 Yes Yes
2000OJ8 O C 2005-03-08.30368 1.000E-05 11:48:12.530 1.500E-01 0.500 F 0.639 0.159 -07° 29' 47.50" 1.000E-01 0.500 F 0.274 -0.192 20.3 V 0.70 0.32 c 691 0.49 Yes Yes
2005EG94 O C 2005-03-08.30368 1.000E-05 11:50:50.050 1.500E-01 0.500 F 0.603 0.146 -07° 03' 55.00" 1.000E-01 0.500 F 0.278 -0.436 21.2 V 0.70 -0.45 c 691 0.93 Yes Yes
2000OJ8 O C 2005-03-08.32910 1.000E-05 11:48:10.630 1.500E-01 0.500 F 0.639 -0.280 -07° 29' 33.50" 1.000E-01 0.500 F 0.274 0.166 20.3 V 0.70 0.32 c 691 0.66 Yes Yes
2005EG94 O C 2005-03-08.32910 1.000E-05 11:50:47.630 1.500E-01 0.500 F 0.603 -0.164 -07° 03' 46.90" 1.000E-01 0.500 F 0.278 0.220 21.7 V 0.70 0.05 c 691 0.56 Yes Yes
2000OJ8 O C 2005-03-08.35503 1.000E-05 11:48:08.740 1.500E-01 0.500 F 0.639 -0.002 -07° 29' 19.80" 1.000E-01 0.500 F 0.274 -0.073 20.3 V 0.70 0.32 c 691 0.14 Yes Yes
2005EG94 O C 2005-03-08.35503 1.000E-05 11:50:45.200 1.500E-01 0.500 F 0.603 0.113 -07° 03' 39.70" 1.000E-01 0.500 F 0.278 -0.199 21.5 V 0.70 -0.15 c 691 0.46 Yes Yes
2005EM30 O C 2005-03-08.43256 1.000E-05 12:55:53.820 1.500E-01 0.500 F 0.406 0.385 +57° 02' 58.40" 1.000E-01 0.500 F 0.157 0.066 19.6 V 0.70 -0.58 c 691 0.79 Yes Yes
2005EM30 O C 2005-03-08.43797 1.000E-05 12:55:51.190 1.500E-01 0.500 F 0.406 0.330 +57° 02' 59.90" 1.000E-01 0.500 F 0.157 -0.137 19.6 V 0.70 -0.58 c 691 0.73 Yes Yes
2005EM30 O C 2005-03-08.44235 1.000E-05 12:55:49.020 1.500E-01 0.500 F 0.406 -0.046 +57° 03' 01.30" 1.000E-01 0.500 F 0.157 -0.104 19.6 V 0.70 -0.58 c 691 0.23 Yes Yes
2002TW55 O C H 2005-03-08.45441 1.000E-05 15:55:05.060 1.500E-01 0.500 F 0.535 -0.889 +57° 21' 39.10" 1.000E-01 0.500 F 0.187 0.160 21.4 V 0.70 -0.13 c 691 1.89 Yes Yes
2002TW55 O C H 2005-03-08.46252 1.000E-05 15:55:04.670 1.500E-01 0.500 F 0.535 -0.533 +57° 21' 48.90" 1.000E-01 0.500 F 0.187 0.146 21.5 V 0.70 -0.03 c 691 1.16 Yes Yes
2002TW55 O C H 2005-03-08.47058 1.000E-05 15:55:04.270 1.500E-01 0.500 F 0.535 -0.271 +57° 21' 58.80" 1.000E-01 0.500 F 0.187 0.303 21.4 V 0.70 -0.13 c 691 0.86 Yes Yes
2005EH94 O C I 2005-03-09.11428 1.000E-05 09:08:14.510 1.500E-01 0.500 F 0.432 -0.452 +20° 40' 56.70" 1.000E-01 0.500 F 0.458 0.616 20.3 V 0.70 0.05 c 691 1.84 Yes Yes
2005EH94 O C 2005-03-09.13074 1.000E-05 09:08:07.420 1.500E-01 0.500 F 0.432 0.229 +20° 40' 24.70" 1.000E-01 0.500 F 0.458 0.375 20.4 V 0.70 0.15 c 691 1.06 Yes Yes
2005EH94 O C 2005-03-09.14763 1.000E-05 09:08:00.040 1.500E-01 0.500 F 0.432 0.041 +20° 39' 51.00" 1.000E-01 0.500 F 0.458 -0.414 20.5 V 0.70 0.25 c 691 0.96 Yes Yes
2000OJ8 O C 2005-03-09.28050 1.000E-05 11:47:02.710 1.500E-01 0.750 F 0.598 -0.039 -07° 20' 59.10" 1.000E-01 0.750 F 0.202 0.195 20.4 V 0.70 0.43 c 691 0.27 Yes Yes
2002GT O C 2005-03-09.28050 1.000E-05 11:52:20.640 1.500E-01 0.750 F 0.603 -0.199 -07° 13' 22.80" 1.000E-01 0.750 F 0.278 0.171 19.9 V 0.70 0.18 c 691 0.35 Yes Yes
2000OJ8 O C 2005-03-09.28816 1.000E-05 11:47:02.160 1.500E-01 0.750 F 0.598 0.156 -07° 20' 55.10" 1.000E-01 0.750 F 0.202 0.039 20.5 V 0.70 0.53 c 691 0.21 Yes Yes
2002GT O C 2005-03-09.28816 1.000E-05 11:52:19.880 1.500E-01 0.750 F 0.603 -0.220 -07° 13' 16.70" 1.000E-01 0.750 F 0.278 0.007 20.7 V 0.70 0.98 c 691 0.29 Yes Yes
2000OJ8 O C 2005-03-09.29784 1.000E-05 11:47:01.440 1.500E-01 0.750 F 0.598 0.037 -07° 20' 49.90" 1.000E-01 0.750 F 0.202 -0.016 20.7 V 0.70 0.73 c 691 0.05 Yes Yes
2002GT O C 2005-03-09.29784 1.000E-05 11:52:18.920 1.500E-01 0.750 F 0.603 -0.229 -07° 13' 09.20" 1.000E-01 0.750 F 0.278 -0.416 20.1 V 0.70 0.38 c 691 0.63 Yes Yes
2000OJ8 O C 2005-03-09.31295 1.000E-05 11:47:00.320 1.500E-01 0.750 F 0.598 -0.083 -07° 20' 41.60" 1.000E-01 0.750 F 0.202 0.076 20.6 V 0.70 0.63 c 691 0.15 Yes Yes
2002GT O C 2005-03-09.31295 1.000E-05 11:52:17.410 1.500E-01 0.750 F 0.603 -0.390 -07° 12' 56.50" 1.000E-01 0.750 F 0.278 -0.095 20.0 V 0.70 0.29 c 691 0.54 Yes Yes
2000OJ8 O C 2005-03-09.32497 1.000E-05 11:46:59.430 1.500E-01 0.750 F 0.598 -0.159 -07° 20' 35.10" 1.000E-01 0.750 F 0.202 0.041 20.4 V 0.70 0.43 c 691 0.22 Yes Yes
2002GT O C 2005-03-09.32497 1.000E-05 11:52:16.200 1.500E-01 0.750 F 0.603 -0.634 -07° 12' 46.90" 1.000E-01 0.750 F 0.278 -0.355 20.2 V 0.70 0.49 c 691 0.97 Yes Yes
2000OJ8 O C 2005-03-09.33374 1.000E-05 11:46:58.780 1.500E-01 0.750 F 0.598 -0.223 -07° 20' 30.50" 1.000E-01 0.750 F 0.202 -0.129 20.8 V 0.70 0.83 c 691 0.35 Yes Yes
2002GT O C 2005-03-09.33374 1.000E-05 11:52:15.380 1.500E-01 0.750 F 0.603 0.129 -07° 12' 39.50" 1.000E-01 0.750 F 0.278 -0.155 20.2 V 0.70 0.49 c 691 0.27 Yes Yes
2000OJ8 O C 2005-03-09.35716 1.000E-05 11:46:57.090 1.500E-01 0.750 F 0.598 0.287 -07° 20' 17.60" 1.000E-01 0.750 F 0.202 0.019 20.6 V 0.70 0.63 c 691 0.38 Yes Yes
2002GT O C 2005-03-09.35716 1.000E-05 11:52:13.020 1.500E-01 0.750 F 0.603 -0.356 -07° 12' 19.90" 1.000E-01 0.750 F 0.278 0.190 20.0 V 0.70 0.29 c 691 0.54 Yes Yes
2000OJ8 O C 2005-03-09.36516 1.000E-05 11:46:56.460 1.500E-01 0.750 F 0.598 -0.325 -07° 20' 13.90" 1.000E-01 0.750 F 0.202 -0.641 21.2 V 0.70 1.23 c 691 0.96 Yes Yes

[1-200] [201-400] [401-600] [601-800] [801-1000] [1001-1200] [1201-1400] [1401-1600] [1601-1800] [1801-2000] [2001-2200] [2201-2400] [2401-2600] [2601-2800] [2801-3000] [3001-3200] [3201-3400] [3401-3600] [3601-3800] [3801-4000] [4001-4200] [4201-4400] [4401-4600] [4601-4800] [4801-5000] [5001-5200] [5201-5400] [5401-5600] [5601-5800] [5801-6000] [6001-6200] [6201-6400] [6401-6600] [6601-6800] [6801-7000] [7001-7200] [7201-7400] [7401-7600] [7601-7800] [7801-8000] [8001-8200] [8201-8400] [8401-8600] [8601-8800] [8801-9000] [9001-9200] [9201-9400] [9401-9600] [9601-9800] [9801-10000] [10001-10200] [10201-10400] [10401-10600] [10601-10800] [10801-11000] [11001-11200] [11201-11400] [11401-11600] [11601-11800] [11801-12000] [12001-12200] [12201-12400] [12401-12600] [12601-12800] [12801-13000] [13001-13200] [13201-13400] [13401-13600] [13601-13800] [13801-14000] [14001-14200] [14201-14400] [14401-14600] [14601-14800] [14801-15000] [15001-15200] [15201-15400] [15401-15600] [15601-15800] [15801-16000] [16001-16200] [16201-16400] [16401-16600] [16601-16800] [16801-17000] [17001-17200] [17201-17400] [17401-17600] [17601-17800] [17801-18000] [18001-18200] [18201-18400] [18401-18600] [18601-18800] [18801-19000] [19001-19200] [19201-19400] [19401-19600] [19601-19800] [19801-20000] [20001-20200] [20201-20400] [20401-20600] [20601-20800] [20801-21000] [21001-21200] [21201-21400] [21401-21600] [21601-21800] [21801-22000] [22001-22200] [22201-22400] [22401-22600] [22601-22800] [22801-23000] [23001-23200] [23201-23400] [23401-23600] [23601-23800] [23801-24000] [24001-24200] [24201-24400] [24401-24600] [24601-24800] [24801-25000] [25001-25200] [25201-25400] [25401-25600] [25601-25800] [25801-26000] [26001-26200] [26201-26400] [26401-26600] [26601-26800] [26801-27000] [27001-27200] [27201-27400] [27401-27600] [27601-27800] [27801-28000] [28001-28200] [28201-28400] [28401-28600] [28601-28800] [28801-29000] [29001-29200] [29201-29400] [29401-29600] [29601-29800] [29801-30000] [30001-30200] [30201-30400] [30401-30600] [30601-30800] [30801-31000] [31001-31200] [31201-31400] [31401-31600] [31601-31800] [31801-32000] [32001-32200] [32201-32400] [32401-32600] [32601-32800] [32801-33000] [33001-33200] [33201-33400] [33401-33600] [33601-33800] [33801-34000] [34001-34200] [34201-34400] [34401-34600] [34601-34800] [34801-35000] [35001-35200] [35201-35400] [35401-35600] [35601-35800] [35801-36000] [36001-36200] [36201-36400] [36401-36600] [36601-36800] [36801-37000] [37001-37200] [37201-37400] [37401-37600] [37601-37800] [37801-38000] [38001-38200] [38201-38400] [38401-38600] [38601-38800] [38801-39000] [39001-39200] [39201-39400] [39401-39600] [39601-39800] [39801-40000] [40001-40200] [40201-40400] [40401-40600] [40601-40800] [40801-41000] [41001-41200] [41201-41400] [41401-41600] [41601-41800] [41801-42000] [42001-42200] [42201-42400] [42401-42600] [42601-42800] [42801-43000] [43001-43200] [43201-43400] [43401-43600] [43601-43800] [43801-44000] [44001-44200] [44201-44400] [44401-44600] [44601-44800] [44801-45000] [45001-45200] [45201-45400] [45401-45600] [45601-45800] [45801-46000] [46001-46200] [46201-46400] [46401-46600] [46601-46800] [46801-47000] [47001-47200] [47201-47400] [47401-47600] [47601-47800] [47801-48000] [48001-48200] [48201-48400] [48401-48600] [48601-48800] [48801-49000] [49001-49200] [49201-49400] [49401-49600] [49601-49800] [49801-50000] [50001-50200] [50201-50388]